sensor_id;sensor_type;location;lat;lon;timestamp;pressure;altitude;pressure_sealevel;temperature;humidity
58739;BME280;44512;53.046;18.604;2023-01-29T00:04:10;102520.13;;;1.00;60.79
58739;BME280;44512;53.046;18.604;2023-01-29T00:14:38;102506.98;;;0.97;61.07
58739;BME280;44512;53.046;18.604;2023-01-29T00:25:08;102477.95;;;0.93;61.14
58739;BME280;44512;53.046;18.604;2023-01-29T00:35:38;102470.81;;;0.93;61.36
58739;BME280;44512;53.046;18.604;2023-01-29T00:46:04;102467.37;;;0.91;61.65
58739;BME280;44512;53.046;18.604;2023-01-29T00:56:36;102479.95;;;0.89;61.70
58739;BME280;44512;53.046;18.604;2023-01-29T01:07:01;102469.46;;;0.86;61.83
58739;BME280;44512;53.046;18.604;2023-01-29T01:17:29;102467.76;;;0.85;61.65
58739;BME280;44512;53.046;18.604;2023-01-29T01:27:58;102473.09;;;0.85;61.34
58739;BME280;44512;53.046;18.604;2023-01-29T01:38:26;102478.43;;;0.85;61.13
58739;BME280;44512;53.046;18.604;2023-01-29T01:48:59;102467.93;;;0.82;61.03
58739;BME280;44512;53.046;18.604;2023-01-29T01:59:23;102475.02;;;0.83;60.96
58739;BME280;44512;53.046;18.604;2023-01-29T02:09:55;102474.13;;;0.83;60.58
58739;BME280;44512;53.046;18.604;2023-01-29T02:20:24;102455.38;;;0.84;60.48
58739;BME280;44512;53.046;18.604;2023-01-29T02:41:24;102436.90;;;0.81;60.53
58739;BME280;44512;53.046;18.604;2023-01-29T02:51:54;102413.59;;;0.85;60.54
58739;BME280;44512;53.046;18.604;2023-01-29T03:02:17;102419.77;;;0.85;60.57
58739;BME280;44512;53.046;18.604;2023-01-29T03:12:44;102405.70;;;0.83;60.74
58739;BME280;44512;53.046;18.604;2023-01-29T03:23:23;102360.56;;;0.80;60.88
58739;BME280;44512;53.046;18.604;2023-01-29T03:33:44;102355.13;;;0.82;61.18
58739;BME280;44512;53.046;18.604;2023-01-29T03:44:18;102329.61;;;0.77;61.26
58739;BME280;44512;53.046;18.604;2023-01-29T03:54:51;102325.23;;;0.76;61.30
58739;BME280;44512;53.046;18.604;2023-01-29T04:05:26;102332.38;;;0.76;61.56
58739;BME280;44512;53.046;18.604;2023-01-29T04:15:39;102342.30;;;0.74;61.69
58739;BME280;44512;53.046;18.604;2023-01-29T04:57:51;102287.92;;;0.76;63.01
58739;BME280;44512;53.046;18.604;2023-01-29T05:07:56;102270.45;;;0.72;63.17
58739;BME280;44512;53.046;18.604;2023-01-29T05:18:23;102274.81;;;0.73;63.38
58739;BME280;44512;53.046;18.604;2023-01-29T05:28:52;102287.07;;;0.76;63.56
58739;BME280;44512;53.046;18.604;2023-01-29T05:39:20;102281.95;;;0.73;64.31
58739;BME280;44512;53.046;18.604;2023-01-29T05:49:49;102285.66;;;0.70;65.36
58739;BME280;44512;53.046;18.604;2023-01-29T06:00:18;102297.28;;;0.69;66.24
58739;BME280;44512;53.046;18.604;2023-01-29T06:10:46;102302.72;;;0.68;66.68
58739;BME280;44512;53.046;18.604;2023-01-29T06:21:14;102303.46;;;0.70;66.74
58739;BME280;44512;53.046;18.604;2023-01-29T06:31:42;102299.20;;;0.67;67.14
58739;BME280;44512;53.046;18.604;2023-01-29T06:42:11;102313.27;;;0.69;67.44
58739;BME280;44512;53.046;18.604;2023-01-29T06:52:39;102310.49;;;0.71;67.65
58739;BME280;44512;53.046;18.604;2023-01-29T07:03:08;102298.98;;;0.70;67.95
58739;BME280;44512;53.046;18.604;2023-01-29T07:13:36;102289.84;;;0.74;68.21
58739;BME280;44512;53.046;18.604;2023-01-29T07:24:05;102316.95;;;0.81;68.27
58739;BME280;44512;53.046;18.604;2023-01-29T07:34:33;102293.34;;;0.89;68.12
58739;BME280;44512;53.046;18.604;2023-01-29T07:45:02;102291.41;;;0.91;67.86
58739;BME280;44512;53.046;18.604;2023-01-29T07:55:31;102283.30;;;0.93;67.88
58739;BME280;44512;53.046;18.604;2023-01-29T08:05:58;102276.27;;;0.92;67.90
58739;BME280;44512;53.046;18.604;2023-01-29T08:16:27;102276.94;;;0.95;68.07
58739;BME280;44512;53.046;18.604;2023-01-29T08:26:55;102261.90;;;0.94;68.36
58739;BME280;44512;53.046;18.604;2023-01-29T08:37:24;102248.89;;;1.02;68.61
58739;BME280;44512;53.046;18.604;2023-01-29T08:47:52;102229.84;;;1.09;68.67
58739;BME280;44512;53.046;18.604;2023-01-29T08:58:20;102231.33;;;1.13;68.72
58739;BME280;44512;53.046;18.604;2023-01-29T09:08:49;102230.37;;;1.14;68.71
58739;BME280;44512;53.046;18.604;2023-01-29T09:19:17;102240.53;;;1.21;68.75
58739;BME280;44512;53.046;18.604;2023-01-29T09:34:50;102230.72;;;1.22;68.84
58739;BME280;44512;53.046;18.604;2023-01-29T09:45:23;102221.76;;;1.23;68.98
58739;BME280;44512;53.046;18.604;2023-01-29T10:06:28;102216.35;;;1.37;69.08
58739;BME280;44512;53.046;18.604;2023-01-29T10:27:15;102177.83;;;1.41;69.49
58739;BME280;44512;53.046;18.604;2023-01-29T10:37:42;102160.74;;;1.44;69.73
58739;BME280;44512;53.046;18.604;2023-01-29T10:48:28;102128.52;;;1.47;70.04
58739;BME280;44512;53.046;18.604;2023-01-29T11:19:38;102091.05;;;1.48;71.08
58739;BME280;44512;53.046;18.604;2023-01-29T11:30:04;102071.31;;;1.51;71.31
58739;BME280;44512;53.046;18.604;2023-01-29T11:40:37;102048.88;;;1.53;71.42
58739;BME280;44512;53.046;18.604;2023-01-29T11:51:01;102047.83;;;1.56;71.46
58739;BME280;44512;53.046;18.604;2023-01-29T12:01:37;102036.91;;;1.59;71.52
58739;BME280;44512;53.046;18.604;2023-01-29T12:12:15;102028.58;;;1.64;71.65
58739;BME280;44512;53.046;18.604;2023-01-29T12:43:41;102013.85;;;1.71;72.00
58739;BME280;44512;53.046;18.604;2023-01-29T12:53:59;101989.69;;;1.72;72.15
58739;BME280;44512;53.046;18.604;2023-01-29T13:14:57;101979.87;;;1.73;72.79
58739;BME280;44512;53.046;18.604;2023-01-29T13:25:18;101969.07;;;1.74;72.95
58739;BME280;44512;53.046;18.604;2023-01-29T13:35:45;101955.63;;;1.76;73.00
58739;BME280;44512;53.046;18.604;2023-01-29T13:46:16;101944.71;;;1.79;72.86
58739;BME280;44512;53.046;18.604;2023-01-29T14:07:58;101956.87;;;1.83;72.56
58739;BME280;44512;53.046;18.604;2023-01-29T14:17:38;101954.32;;;1.81;72.73
58739;BME280;44512;53.046;18.604;2023-01-29T14:28:13;101943.73;;;1.80;72.79
58739;BME280;44512;53.046;18.604;2023-01-29T14:38:35;101929.66;;;1.78;72.87
58739;BME280;44512;53.046;18.604;2023-01-29T14:49:07;101924.33;;;1.78;73.04
58739;BME280;44512;53.046;18.604;2023-01-29T14:59:36;101927.72;;;1.80;73.15
58739;BME280;44512;53.046;18.604;2023-01-29T15:20:37;101921.45;;;1.81;73.28
58739;BME280;44512;53.046;18.604;2023-01-29T15:31:00;101917.04;;;1.80;73.38
58739;BME280;44512;53.046;18.604;2023-01-29T15:41:26;101901.88;;;1.80;73.42
58739;BME280;44512;53.046;18.604;2023-01-29T15:51:56;101904.45;;;1.82;73.38
58739;BME280;44512;53.046;18.604;2023-01-29T16:02:34;101880.42;;;1.82;73.21
58739;BME280;44512;53.046;18.604;2023-01-29T16:12:51;101871.56;;;1.81;73.24
58739;BME280;44512;53.046;18.604;2023-01-29T16:23:26;101834.41;;;1.78;73.49
58739;BME280;44512;53.046;18.604;2023-01-29T16:33:49;101834.41;;;1.78;73.64
58739;BME280;44512;53.046;18.604;2023-01-29T16:54:45;101820.93;;;1.80;73.93
58739;BME280;44512;53.046;18.604;2023-01-29T17:05:20;101813.05;;;1.78;74.21
58739;BME280;44512;53.046;18.604;2023-01-29T17:15:45;101803.48;;;1.76;74.48
58739;BME280;44512;53.046;18.604;2023-01-29T17:26:12;101801.74;;;1.75;74.70
58739;BME280;44512;53.046;18.604;2023-01-29T17:36:43;101782.13;;;1.76;74.78
58739;BME280;44512;53.046;18.604;2023-01-29T17:47:13;101758.81;;;1.78;74.94
58739;BME280;44512;53.046;18.604;2023-01-29T17:57:36;101766.70;;;1.79;75.09
58739;BME280;44512;53.046;18.604;2023-01-29T18:08:04;101762.11;;;1.81;75.20
58739;BME280;44512;53.046;18.604;2023-01-29T18:18:33;101746.09;;;1.81;75.36
58739;BME280;44512;53.046;18.604;2023-01-29T18:29:02;101761.98;;;1.83;75.59
58739;BME280;44512;53.046;18.604;2023-01-29T18:39:30;101723.89;;;1.81;75.67
58739;BME280;44512;53.046;18.604;2023-01-29T18:49:58;101697.91;;;1.83;75.74
58739;BME280;44512;53.046;18.604;2023-01-29T19:00:26;101669.16;;;1.87;75.67
58739;BME280;44512;53.046;18.604;2023-01-29T19:10:55;101663.70;;;1.88;75.78
58739;BME280;44512;53.046;18.604;2023-01-29T19:21:23;101652.75;;;1.91;75.84
58739;BME280;44512;53.046;18.604;2023-01-29T19:31:52;101636.50;;;1.94;75.88
58739;BME280;44512;53.046;18.604;2023-01-29T19:42:20;101632.01;;;1.95;75.77
58739;BME280;44512;53.046;18.604;2023-01-29T19:52:49;101612.47;;;1.94;75.59
58739;BME280;44512;53.046;18.604;2023-01-29T20:03:17;101597.16;;;1.96;75.34
58739;BME280;44512;53.046;18.604;2023-01-29T20:13:47;101594.97;;;2.01;75.14
58739;BME280;44512;53.046;18.604;2023-01-29T20:24:14;101566.58;;;2.00;74.80
58739;BME280;44512;53.046;18.604;2023-01-29T20:34:45;101553.98;;;2.02;74.56
58739;BME280;44512;53.046;18.604;2023-01-29T20:45:11;101546.66;;;2.04;74.29
58739;BME280;44512;53.046;18.604;2023-01-29T20:55:39;101518.01;;;2.06;74.00
58739;BME280;44512;53.046;18.604;2023-01-29T21:06:09;101505.64;;;2.05;73.71
58739;BME280;44512;53.046;18.604;2023-01-29T21:16:36;101477.24;;;2.04;73.49
58739;BME280;44512;53.046;18.604;2023-01-29T21:27:05;101455.88;;;2.04;73.58
58739;BME280;44512;53.046;18.604;2023-01-29T21:37:33;101435.49;;;2.03;73.33
58739;BME280;44512;53.046;18.604;2023-01-29T21:48:02;101422.85;;;2.05;73.34
58739;BME280;44512;53.046;18.604;2023-01-29T21:58:30;101416.53;;;2.06;73.11
58739;BME280;44512;53.046;18.604;2023-01-29T22:08:58;101399.80;;;2.04;73.07
58739;BME280;44512;53.046;18.604;2023-01-29T22:19:27;101352.72;;;2.03;73.11
58739;BME280;44512;53.046;18.604;2023-01-29T22:29:55;101345.41;;;2.05;73.08
58739;BME280;44512;53.046;18.604;2023-01-29T22:40:24;101318.84;;;2.04;73.02
58739;BME280;44512;53.046;18.604;2023-01-29T22:50:56;101307.46;;;2.02;73.06
58739;BME280;44512;53.046;18.604;2023-01-29T23:01:23;101283.30;;;2.03;73.09
58739;BME280;44512;53.046;18.604;2023-01-29T23:11:49;101253.78;;;2.05;73.00
58739;BME280;44512;53.046;18.604;2023-01-29T23:22:17;101222.47;;;2.07;72.83
58739;BME280;44512;53.046;18.604;2023-01-29T23:32:46;101205.32;;;2.09;72.60
58739;BME280;44512;53.046;18.604;2023-01-29T23:43:14;101169.77;;;2.09;72.49
58739;BME280;44512;53.046;18.604;2023-01-29T23:53:43;101130.11;;;2.04;72.35
